Anchor Bay, California
Current Conditions -  °F | °C
As of 4:56 AM on Thursday 27 Nov 2014 (Local Time) from KUKI Reporting Station
Clear Clear  
Wind Chill: 44°   Ceiling: Unl
Heat Index: 44°   Visibility: 10mi
Dew Point: 41°   Wind: 0mph
Humidity: 89%   Direction: NA
Pressure: 30.2"   Gusts: NA
Location:  38.8361°N, 123.43°W
Report Text: KUKI 271256Z AUTO 00000KT 10SM CLR 07/05 A3020 RMK AO2 SLP223 T00670050
Loading
Personal Weather Stations






























Interactive Weather Map New forecast layout! Learn more

10-Day Weather Forecast

Advertisements
Track Severe Weather on mobile